Terminal Aerodrome Forecast
Issued by NWS

Home | Current Version | Previous Version | Text Only | Print | Product List | Glossary On
Versions: 1 2 3 4 5 6 7 8 9 10 11 12 13 14 15 16 17 18 19 20 21 22 23 24 25 26 27
000
FTUS44 KLZK 270800 AAA
TAFLIT
TAF AMD
KLIT 270823Z 2708/2806 06008KT P6SM BKN050
     FM270900 06007KT P6SM VCSH BKN050
      TEMPO 2710/2714 4SM -TSRA BR BKN035CB
     FM271400 07008G16KT P6SM VCSH BKN035 OVC100
     FM280100 06010KT 5SM -SHRA VCTS BKN035CB=

USA.gov is the U.S. government's official web portal to all federal, state and local government web resources and services.